Time;durP1;ratioP1;P1;durP2;ratioP2;P2;SDS_P1;SDS_P2;PMS_P1;PMS_P2;Temp;Humidity;BMP_temperature;BMP_pressure;BME280_temperature;BME280_humidity;BME280_pressure;Samples;Min_cycle;Max_cycle;Signal;HPM_P1;HPM_P2
2022/02/12 00:00:30;;;;;;;11.80;6.53;;;;;;;;;;4993870;28;20169;-83
2022/02/12 00:02:56;;;;;;;17.17;6.35;;;;;;;;;;4997618;28;20554;-80
2022/02/12 00:05:26;;;;;;;15.38;6.80;;;;;;;;;;5000131;28;21732;-85
2022/02/12 00:07:52;;;;;;;12.98;6.40;;;;;;;;;;4984697;28;20047;-83
2022/02/12 00:10:18;;;;;;;14.48;6.22;;;;;;;;;;4985293;28;20509;-84
2022/02/12 00:12:44;;;;;;;12.18;5.95;;;;;;;;;;4982896;28;20065;-82
2022/02/12 00:15:09;;;;;;;14.68;6.57;;;;;;;;;;4987126;28;20037;-81
2022/02/12 00:17:35;;;;;;;11.45;6.65;;;;;;;;;;4985997;28;20026;-84
2022/02/12 00:20:01;;;;;;;12.27;6.13;;;;;;;;;;4987652;28;20407;-83
2022/02/12 00:22:27;;;;;;;13.68;6.20;;;;;;;;;;4983908;28;20593;-82
2022/02/12 00:24:52;;;;;;;11.48;5.55;;;;;;;;;;4983726;28;20046;-79
2022/02/12 00:27:17;;;;;;;12.30;6.00;;;;;;;;;;5003952;28;20499;-82
2022/02/12 00:29:42;;;;;;;11.95;5.88;;;;;;;;;;4978755;28;20483;-84
2022/02/12 00:32:09;;;;;;;13.30;5.78;;;;;;;;;;4986608;28;20015;-84
2022/02/12 00:34:34;;;;;;;13.88;5.95;;;;;;;;;;4984127;28;20045;-82
2022/02/12 00:36:59;;;;;;;10.02;5.78;;;;;;;;;;4981942;28;20038;-82
2022/02/12 00:39:25;;;;;;;13.75;6.03;;;;;;;;;;4981143;28;20041;-82
2022/02/12 00:41:50;;;;;;;13.13;5.88;;;;;;;;;;4980586;28;20045;-84
2022/02/12 00:44:16;;;;;;;13.35;6.00;;;;;;;;;;4984055;28;20030;-83
2022/02/12 00:46:41;;;;;;;12.85;6.25;;;;;;;;;;4995548;28;20049;-80
2022/02/12 00:49:07;;;;;;;12.82;6.10;;;;;;;;;;4986436;28;20462;-84
2022/02/12 00:51:33;;;;;;;12.05;6.13;;;;;;;;;;4985683;28;20116;-82
2022/02/12 00:53:59;;;;;;;13.25;6.50;;;;;;;;;;4981803;28;20022;-82
2022/02/12 00:56:25;;;;;;;12.95;6.00;;;;;;;;;;4985726;28;20035;-83
2022/02/12 00:58:52;;;;;;;11.07;5.80;;;;;;;;;;4988646;28;20049;-81
2022/02/12 01:01:17;;;;;;;13.50;6.53;;;;;;;;;;4977479;28;20032;-79
2022/02/12 01:03:43;;;;;;;15.75;6.38;;;;;;;;;;4988716;28;20546;-83
2022/02/12 01:06:08;;;;;;;13.30;6.20;;;;;;;;;;4981268;28;20053;-83
2022/02/12 01:08:33;;;;;;;15.10;6.38;;;;;;;;;;4976024;28;20029;-81
2022/02/12 01:10:59;;;;;;;14.38;6.60;;;;;;;;;;4978660;28;20058;-80
2022/02/12 01:13:24;;;;;;;14.40;6.32;;;;;;;;;;4978177;28;20447;-80
2022/02/12 01:15:50;;;;;;;14.07;5.93;;;;;;;;;;4988362;28;20034;-82
2022/02/12 01:18:15;;;;;;;14.20;6.18;;;;;;;;;;4987645;28;20342;-82
2022/02/12 01:20:41;;;;;;;15.90;6.45;;;;;;;;;;4986339;28;20117;-79
2022/02/12 01:23:06;;;;;;;13.50;6.22;;;;;;;;;;4987015;28;20034;-82
2022/02/12 01:25:32;;;;;;;13.23;6.00;;;;;;;;;;4991138;28;20050;-82
2022/02/12 01:27:58;;;;;;;15.05;6.20;;;;;;;;;;4990928;28;20361;-79
2022/02/12 01:30:24;;;;;;;15.68;6.07;;;;;;;;;;4983166;28;20033;-80
2022/02/12 01:32:49;;;;;;;13.38;5.70;;;;;;;;;;4988071;28;20022;-79
2022/02/12 01:35:14;;;;;;;12.60;5.65;;;;;;;;;;4986734;28;20037;-82
2022/02/12 01:37:40;;;;;;;18.02;5.82;;;;;;;;;;4983373;28;20491;-84
2022/02/12 01:40:07;;;;;;;12.80;5.88;;;;;;;;;;4981836;28;20038;-80
2022/02/12 01:42:33;;;;;;;12.82;6.57;;;;;;;;;;4986403;28;20019;-81
2022/02/12 01:45:02;;;;;;;11.10;5.25;;;;;;;;;;4986971;28;20031;-82
2022/02/12 01:47:28;;;;;;;13.15;5.72;;;;;;;;;;4984588;28;20034;-81
2022/02/12 01:49:54;;;;;;;13.27;5.53;;;;;;;;;;4984833;28;20041;-82
2022/02/12 01:52:21;;;;;;;13.88;5.88;;;;;;;;;;4983849;28;20038;-82
2022/02/12 01:54:47;;;;;;;14.63;5.50;;;;;;;;;;4985124;28;20032;-80
2022/02/12 01:57:13;;;;;;;12.82;5.20;;;;;;;;;;4977716;28;20030;-82
2022/02/12 01:59:40;;;;;;;12.80;6.38;;;;;;;;;;4987170;28;20037;-81
2022/02/12 02:02:06;;;;;;;13.45;6.90;;;;;;;;;;4983812;28;20052;-82
2022/02/12 02:04:32;;;;;;;15.85;7.03;;;;;;;;;;4983510;28;20041;-81
2022/02/12 02:06:58;;;;;;;13.45;6.72;;;;;;;;;;4986096;28;20038;-82
2022/02/12 02:09:23;;;;;;;14.77;7.00;;;;;;;;;;4986314;28;20528;-82
2022/02/12 02:11:49;;;;;;;17.42;7.15;;;;;;;;;;4988486;28;20050;-83
2022/02/12 02:14:15;;;;;;;14.80;6.97;;;;;;;;;;4989355;28;20475;-82
2022/02/12 02:16:42;;;;;;;19.23;7.70;;;;;;;;;;4988734;28;20038;-82
2022/02/12 02:19:09;;;;;;;14.52;7.30;;;;;;;;;;5004895;28;20399;-82
2022/02/12 02:21:36;;;;;;;19.13;7.25;;;;;;;;;;4989828;28;20117;-83
2022/02/12 02:24:01;;;;;;;18.25;7.72;;;;;;;;;;4987132;28;20802;-82
2022/02/12 02:26:27;;;;;;;18.55;6.97;;;;;;;;;;4990811;28;20093;-82
2022/02/12 02:28:52;;;;;;;13.20;6.70;;;;;;;;;;4984531;28;20038;-82
2022/02/12 02:31:17;;;;;;;18.33;7.20;;;;;;;;;;4986860;28;20034;-82
2022/02/12 02:33:43;;;;;;;13.77;6.65;;;;;;;;;;4991339;28;20050;-83
2022/02/12 02:36:08;;;;;;;16.50;6.93;;;;;;;;;;4987772;28;20114;-79
2022/02/12 02:38:34;;;;;;;14.13;7.10;;;;;;;;;;4987456;28;20036;-82
2022/02/12 02:41:00;;;;;;;11.70;6.25;;;;;;;;;;4989773;28;20030;-82
2022/02/12 02:43:27;;;;;;;13.55;6.82;;;;;;;;;;4988193;28;20157;-82
2022/02/12 02:45:52;;;;;;;14.75;6.25;;;;;;;;;;4982484;28;20457;-82
2022/02/12 02:48:18;;;;;;;15.50;6.20;;;;;;;;;;4996806;28;20084;-79
2022/02/12 02:56:13;;;;;;;18.00;5.93;;;;;;;;;;4989752;28;20049;-84
2022/02/12 02:58:41;;;;;;;14.07;6.85;;;;;;;;;;4990330;28;20049;-84
2022/02/12 03:01:10;;;;;;;12.48;5.72;;;;;;;;;;4988625;28;20038;-82
2022/02/12 03:03:40;;;;;;;12.82;5.63;;;;;;;;;;4982715;28;20487;-82
2022/02/12 03:06:06;;;;;;;14.60;6.28;;;;;;;;;;4986209;28;20652;-82
2022/02/12 03:08:32;;;;;;;13.90;5.72;;;;;;;;;;5002153;28;20030;-82
2022/02/12 03:10:58;;;;;;;15.48;6.05;;;;;;;;;;4989974;28;20030;-82
2022/02/12 03:13:24;;;;;;;12.98;6.35;;;;;;;;;;4985950;28;20125;-84
2022/02/12 03:15:49;;;;;;;15.38;6.07;;;;;;;;;;4991239;28;20030;-82
2022/02/12 03:18:15;;;;;;;16.40;6.55;;;;;;;;;;4990156;28;20053;-79
2022/02/12 03:20:40;;;;;;;14.38;6.20;;;;;;;;;;4985705;28;20030;-81
2022/02/12 03:23:06;;;;;;;11.65;5.97;;;;;;;;;;4981933;28;20042;-82
2022/02/12 03:25:32;;;;;;;12.70;6.10;;;;;;;;;;4989004;28;20510;-82
2022/02/12 03:28:02;;;;;;;13.35;6.45;;;;;;;;;;4985463;28;20041;-84
2022/02/12 03:30:30;;;;;;;17.48;6.07;;;;;;;;;;4985257;28;20022;-84
2022/02/12 03:32:55;;;;;;;17.08;6.32;;;;;;;;;;4985115;28;20031;-82
2022/02/12 03:35:24;;;;;;;13.88;5.45;;;;;;;;;;4999642;28;20447;-80
2022/02/12 03:37:50;;;;;;;16.95;6.45;;;;;;;;;;5001610;28;20103;-82
2022/02/12 03:40:16;;;;;;;14.63;6.50;;;;;;;;;;5000222;28;20078;-82
2022/02/12 03:42:41;;;;;;;14.18;5.75;;;;;;;;;;4981351;28;20089;-82
2022/02/12 03:45:07;;;;;;;13.82;5.60;;;;;;;;;;4982095;28;20026;-80
2022/02/12 03:47:33;;;;;;;14.35;5.95;;;;;;;;;;4980163;28;20057;-84
2022/02/12 03:49:58;;;;;;;11.27;5.72;;;;;;;;;;4981270;28;20033;-79
2022/02/12 03:52:23;;;;;;;12.90;5.63;;;;;;;;;;4979752;28;20121;-80
2022/02/12 03:54:49;;;;;;;10.95;5.93;;;;;;;;;;4981874;28;20030;-83
2022/02/12 03:57:14;;;;;;;14.90;6.10;;;;;;;;;;4980153;28;20037;-82
2022/02/12 03:59:39;;;;;;;14.25;5.70;;;;;;;;;;4983643;28;20061;-81
2022/02/12 04:02:05;;;;;;;13.13;5.70;;;;;;;;;;4980566;28;20030;-82
2022/02/12 04:04:30;;;;;;;16.27;6.45;;;;;;;;;;4987408;28;20057;-82
2022/02/12 04:06:56;;;;;;;14.75;7.10;;;;;;;;;;4983517;28;20035;-83
2022/02/12 04:09:21;;;;;;;17.98;6.07;;;;;;;;;;4995326;28;20601;-81
2022/02/12 04:11:46;;;;;;;16.52;6.28;;;;;;;;;;4979110;28;20034;-79
2022/02/12 04:14:12;;;;;;;11.90;5.85;;;;;;;;;;4980533;28;21463;-82
2022/02/12 04:16:37;;;;;;;14.52;5.88;;;;;;;;;;4981117;28;20080;-84
2022/02/12 04:19:02;;;;;;;16.95;6.35;;;;;;;;;;4997621;28;20030;-82
2022/02/12 04:21:28;;;;;;;14.05;5.72;;;;;;;;;;4980228;28;20042;-83
2022/02/12 04:23:53;;;;;;;16.10;6.25;;;;;;;;;;4982280;28;20030;-80
2022/02/12 04:26:18;;;;;;;13.10;6.50;;;;;;;;;;4979574;28;20069;-82
2022/02/12 04:28:44;;;;;;;14.98;6.53;;;;;;;;;;4983303;28;20034;-84
2022/02/12 04:31:09;;;;;;;15.75;5.97;;;;;;;;;;4979533;28;20128;-83
2022/02/12 04:33:35;;;;;;;15.23;6.30;;;;;;;;;;4980310;28;20041;-84
2022/02/12 04:36:00;;;;;;;12.70;6.65;;;;;;;;;;4980966;28;20038;-82
2022/02/12 04:38:26;;;;;;;13.98;5.85;;;;;;;;;;4986775;28;20147;-79
2022/02/12 04:40:51;;;;;;;13.68;6.00;;;;;;;;;;4986592;28;20045;-82
2022/02/12 04:43:16;;;;;;;26.17;6.68;;;;;;;;;;4984027;28;20042;-84
2022/02/12 04:45:42;;;;;;;15.05;6.07;;;;;;;;;;4975332;28;20173;-79
2022/02/12 04:48:07;;;;;;;17.95;6.97;;;;;;;;;;4982589;28;20029;-79
2022/02/12 04:50:32;;;;;;;14.52;5.95;;;;;;;;;;4978577;28;20034;-83
2022/02/12 04:52:59;;;;;;;14.90;5.70;;;;;;;;;;4982579;28;20030;-82
2022/02/12 04:55:24;;;;;;;18.23;6.90;;;;;;;;;;4980268;28;20027;-81
2022/02/12 04:57:50;;;;;;;14.30;6.35;;;;;;;;;;4986269;28;20031;-82
2022/02/12 05:00:16;;;;;;;9.93;5.43;;;;;;;;;;4980722;28;20023;-82
2022/02/12 05:02:42;;;;;;;15.88;7.00;;;;;;;;;;4993158;28;20073;-84
2022/02/12 05:05:08;;;;;;;16.25;6.18;;;;;;;;;;4983780;28;20503;-84
2022/02/12 05:07:33;;;;;;;16.60;6.35;;;;;;;;;;4981251;28;20085;-82
2022/02/12 05:09:59;;;;;;;15.55;6.47;;;;;;;;;;4980890;28;20034;-82
2022/02/12 05:12:24;;;;;;;13.70;6.35;;;;;;;;;;4984398;28;20030;-82
2022/02/12 05:14:50;;;;;;;15.20;6.68;;;;;;;;;;4985268;28;20038;-81
2022/02/12 05:17:15;;;;;;;15.48;6.63;;;;;;;;;;4982901;28;20081;-84
2022/02/12 05:19:40;;;;;;;13.57;6.13;;;;;;;;;;4985270;28;20038;-83
2022/02/12 05:22:06;;;;;;;13.13;6.20;;;;;;;;;;4985981;28;20022;-82
2022/02/12 05:24:31;;;;;;;12.30;6.18;;;;;;;;;;4978976;28;20751;-82
2022/02/12 05:26:57;;;;;;;16.70;6.55;;;;;;;;;;4947508;28;20038;-82
2022/02/12 05:29:22;;;;;;;14.77;6.50;;;;;;;;;;4946502;28;20026;-82
2022/02/12 05:31:47;;;;;;;14.05;6.60;;;;;;;;;;4950446;28;20396;-83
2022/02/12 05:34:13;;;;;;;16.02;6.78;;;;;;;;;;4943226;28;20046;-81
2022/02/12 05:36:38;;;;;;;21.02;6.82;;;;;;;;;;4947203;28;20062;-83
2022/02/12 05:39:04;;;;;;;16.48;6.70;;;;;;;;;;4945955;28;20051;-83
2022/02/12 05:41:30;;;;;;;21.25;6.95;;;;;;;;;;4944927;28;20027;-81
2022/02/12 05:43:55;;;;;;;18.25;6.40;;;;;;;;;;4946664;28;20039;-81
2022/02/12 05:46:21;;;;;;;11.43;6.78;;;;;;;;;;4964051;28;20080;-82
2022/02/12 05:48:46;;;;;;;14.23;6.93;;;;;;;;;;4965312;28;20031;-82
2022/02/12 05:51:11;;;;;;;12.98;6.50;;;;;;;;;;4963350;28;20030;-81
2022/02/12 05:53:38;;;;;;;16.60;6.72;;;;;;;;;;4968903;28;20539;-82
2022/02/12 05:56:03;;;;;;;15.13;6.53;;;;;;;;;;4952794;28;20494;-82
2022/02/12 05:58:29;;;;;;;18.42;6.50;;;;;;;;;;4954357;28;20034;-81
2022/02/12 06:00:54;;;;;;;17.02;6.97;;;;;;;;;;4956732;28;20444;-80
2022/02/12 06:03:19;;;;;;;16.00;7.10;;;;;;;;;;4966499;28;20031;-81
2022/02/12 06:05:45;;;;;;;17.00;6.78;;;;;;;;;;4949924;28;20038;-79
2022/02/12 06:08:11;;;;;;;17.02;7.28;;;;;;;;;;4956428;28;20038;-79
2022/02/12 06:10:36;;;;;;;14.10;6.22;;;;;;;;;;4951252;28;20031;-79
2022/02/12 06:13:02;;;;;;;12.25;6.80;;;;;;;;;;4949996;28;20037;-82
2022/02/12 06:15:27;;;;;;;11.30;6.13;;;;;;;;;;4951991;28;20513;-82
2022/02/12 06:17:53;;;;;;;16.20;6.95;;;;;;;;;;4951640;28;20042;-79
2022/02/12 06:20:18;;;;;;;15.15;6.43;;;;;;;;;;4946227;28;20034;-81
2022/02/12 06:22:44;;;;;;;16.35;6.53;;;;;;;;;;4951989;28;20035;-82
2022/02/12 06:25:10;;;;;;;14.25;5.97;;;;;;;;;;4965378;28;20044;-82
2022/02/12 06:27:35;;;;;;;17.20;6.25;;;;;;;;;;4990094;28;20395;-81
2022/02/12 06:30:01;;;;;;;19.35;7.25;;;;;;;;;;4987792;28;20038;-81
2022/02/12 06:32:27;;;;;;;15.43;6.35;;;;;;;;;;4984381;28;21315;-81
2022/02/12 06:34:56;;;;;;;14.20;6.45;;;;;;;;;;4986118;28;20026;-81
2022/02/12 06:37:21;;;;;;;13.98;6.35;;;;;;;;;;4983635;28;20168;-81
2022/02/12 06:39:47;;;;;;;18.35;6.68;;;;;;;;;;4985114;28;20477;-81
2022/02/12 06:42:14;;;;;;;15.85;6.03;;;;;;;;;;4981195;28;20058;-84
2022/02/12 06:44:40;;;;;;;17.00;6.65;;;;;;;;;;4989846;28;20109;-83
2022/02/12 06:47:06;;;;;;;15.85;6.57;;;;;;;;;;4988076;28;20072;-80
2022/02/12 06:49:32;;;;;;;13.75;6.70;;;;;;;;;;4987356;28;20030;-83
2022/02/12 06:51:57;;;;;;;15.10;6.30;;;;;;;;;;4984857;28;20033;-83
2022/02/12 06:54:22;;;;;;;12.75;6.30;;;;;;;;;;4980541;28;20034;-81
2022/02/12 06:56:48;;;;;;;14.82;6.60;;;;;;;;;;4983955;28;20022;-79
2022/02/12 06:59:13;;;;;;;18.60;6.80;;;;;;;;;;4988870;28;20141;-79
2022/02/12 07:01:38;;;;;;;17.88;6.13;;;;;;;;;;4986263;28;20809;-82
2022/02/12 07:04:04;;;;;;;14.98;6.28;;;;;;;;;;5002994;28;20038;-79
2022/02/12 07:06:29;;;;;;;16.20;6.50;;;;;;;;;;4985182;28;21864;-84
2022/02/12 07:08:55;;;;;;;12.52;6.57;;;;;;;;;;4987153;28;20105;-81
2022/02/12 07:11:20;;;;;;;13.15;6.60;;;;;;;;;;4988011;28;20132;-82
2022/02/12 07:13:45;;;;;;;14.68;7.00;;;;;;;;;;4988685;28;20747;-83
2022/02/12 07:16:11;;;;;;;12.68;6.10;;;;;;;;;;4987978;28;20494;-84
2022/02/12 07:18:37;;;;;;;15.93;6.70;;;;;;;;;;4985955;28;20027;-82
2022/02/12 07:21:03;;;;;;;13.77;5.85;;;;;;;;;;4987086;28;20541;-81
2022/02/12 07:23:28;;;;;;;14.18;6.30;;;;;;;;;;4999300;28;20033;-81
2022/02/12 07:25:54;;;;;;;14.15;6.03;;;;;;;;;;4989028;28;20046;-82
2022/02/12 07:28:19;;;;;;;14.07;6.63;;;;;;;;;;4983027;28;20049;-83
2022/02/12 07:30:45;;;;;;;18.85;6.55;;;;;;;;;;4978641;28;20498;-79
2022/02/12 07:33:10;;;;;;;15.25;5.90;;;;;;;;;;4990893;28;20045;-82
2022/02/12 07:35:36;;;;;;;12.90;6.50;;;;;;;;;;4985210;28;20409;-78
2022/02/12 07:38:01;;;;;;;15.20;6.28;;;;;;;;;;4979482;28;20128;-84
2022/02/12 07:40:27;;;;;;;15.82;6.05;;;;;;;;;;4980867;28;20081;-83
2022/02/12 07:42:52;;;;;;;15.35;6.47;;;;;;;;;;4989605;28;20022;-81
2022/02/12 07:45:18;;;;;;;15.30;6.75;;;;;;;;;;4987490;28;20109;-80
2022/02/12 07:47:44;;;;;;;11.02;5.82;;;;;;;;;;4982625;28;20478;-79
2022/02/12 07:50:12;;;;;;;16.33;6.40;;;;;;;;;;4986510;28;20125;-84
2022/02/12 07:52:39;;;;;;;17.27;6.13;;;;;;;;;;4990137;28;20015;-82
2022/02/12 07:55:05;;;;;;;22.58;6.40;;;;;;;;;;4981365;28;20463;-84
2022/02/12 07:57:30;;;;;;;15.18;6.40;;;;;;;;;;4989504;28;20033;-84
2022/02/12 07:59:55;;;;;;;14.15;6.20;;;;;;;;;;4984727;28;20060;-79
2022/02/12 08:02:21;;;;;;;15.10;5.82;;;;;;;;;;4980623;28;20382;-79
2022/02/12 08:04:46;;;;;;;14.27;5.50;;;;;;;;;;4988418;28;20105;-81
2022/02/12 08:07:30;;;;;;;13.10;6.18;;;;;;;;;;4997515;28;20028;-81
2022/02/12 08:12:57;;;;;;;13.00;5.97;;;;;;;;;;4983668;28;20064;-84
2022/02/12 08:15:23;;;;;;;14.23;5.93;;;;;;;;;;4983000;28;20554;-81
2022/02/12 08:17:49;;;;;;;12.13;6.30;;;;;;;;;;4988171;28;20121;-81
2022/02/12 08:20:14;;;;;;;12.88;6.00;;;;;;;;;;4988650;28;20173;-83
2022/02/12 08:22:40;;;;;;;15.10;5.93;;;;;;;;;;4981486;28;20027;-84
2022/02/12 08:25:07;;;;;;;11.95;6.10;;;;;;;;;;4976069;28;20062;-81
2022/02/12 08:27:33;;;;;;;13.57;5.78;;;;;;;;;;4989508;28;20074;-83
2022/02/12 08:29:58;;;;;;;16.67;5.82;;;;;;;;;;4986445;28;20026;-80
2022/02/12 08:32:24;;;;;;;12.55;6.10;;;;;;;;;;4992852;28;20018;-83
2022/02/12 08:34:52;;;;;;;12.43;5.22;;;;;;;;;;4992011;28;20031;-81
2022/02/12 08:37:18;;;;;;;15.57;5.80;;;;;;;;;;4983875;28;20031;-84
2022/02/12 08:39:43;;;;;;;14.85;5.88;;;;;;;;;;4986544;28;20033;-81
2022/02/12 08:42:09;;;;;;;14.80;6.50;;;;;;;;;;4989625;28;20093;-78
2022/02/12 08:44:35;;;;;;;12.43;6.05;;;;;;;;;;4993160;28;20117;-82
2022/02/12 08:47:02;;;;;;;14.80;5.28;;;;;;;;;;4989445;28;20542;-79
2022/02/12 08:49:28;;;;;;;12.75;5.40;;;;;;;;;;4990675;28;20033;-79
2022/02/12 08:51:54;;;;;;;14.10;5.82;;;;;;;;;;4992471;28;20022;-82
2022/02/12 08:54:19;;;;;;;15.18;5.85;;;;;;;;;;4987185;28;20034;-83
2022/02/12 08:56:45;;;;;;;14.65;6.05;;;;;;;;;;4983439;28;20084;-82
2022/02/12 08:59:12;;;;;;;15.18;5.75;;;;;;;;;;4984694;28;20113;-81
2022/02/12 09:01:40;;;;;;;14.27;5.57;;;;;;;;;;5002515;28;20049;-80
2022/02/12 09:04:06;;;;;;;13.43;5.97;;;;;;;;;;4984691;28;20102;-80
2022/02/12 09:06:32;;;;;;;14.68;6.07;;;;;;;;;;4987656;28;20034;-79
2022/02/12 09:08:58;;;;;;;14.18;5.80;;;;;;;;;;5005233;28;20036;-81
2022/02/12 09:11:25;;;;;;;12.30;5.10;;;;;;;;;;4988080;28;20029;-83
2022/02/12 09:13:52;;;;;;;17.05;5.28;;;;;;;;;;4988807;28;20053;-83
2022/02/12 09:16:19;;;;;;;12.27;5.32;;;;;;;;;;4993354;28;20428;-81
2022/02/12 09:18:45;;;;;;;15.63;5.43;;;;;;;;;;4996439;28;20027;-82
2022/02/12 09:21:11;;;;;;;10.30;4.97;;;;;;;;;;4989399;28;20566;-83
2022/02/12 09:23:36;;;;;;;14.60;6.18;;;;;;;;;;4988070;28;20116;-84
2022/02/12 09:26:02;;;;;;;15.20;5.53;;;;;;;;;;4985965;28;20496;-78
2022/02/12 09:28:27;;;;;;;9.13;5.03;;;;;;;;;;4989214;28;20022;-82
2022/02/12 09:30:53;;;;;;;13.35;5.35;;;;;;;;;;4989247;28;20034;-80
2022/02/12 09:33:18;;;;;;;13.35;5.10;;;;;;;;;;4987067;28;20094;-82
2022/02/12 09:35:44;;;;;;;14.48;4.95;;;;;;;;;;4985810;28;20430;-82
2022/02/12 09:38:10;;;;;;;12.48;5.03;;;;;;;;;;4985891;28;20038;-78
2022/02/12 09:40:37;;;;;;;12.77;5.28;;;;;;;;;;4985126;28;20038;-81
2022/02/12 09:43:04;;;;;;;14.88;5.22;;;;;;;;;;4984699;28;20061;-82
2022/02/12 09:45:38;;;;;;;14.88;5.40;;;;;;;;;;4984560;28;20034;-79
2022/02/12 09:48:04;;;;;;;12.82;4.60;;;;;;;;;;4989927;28;20030;-82
2022/02/12 09:50:31;;;;;;;17.75;4.90;;;;;;;;;;5004306;28;20041;-82
2022/02/12 09:52:56;;;;;;;7.63;4.57;;;;;;;;;;4980529;28;20026;-83
2022/02/12 09:55:23;;;;;;;15.85;5.25;;;;;;;;;;4992228;28;20041;-82
2022/02/12 09:57:49;;;;;;;17.02;5.90;;;;;;;;;;4985961;28;20022;-82
2022/02/12 10:00:19;;;;;;;9.45;4.47;;;;;;;;;;4989661;28;20120;-81
2022/02/12 10:02:46;;;;;;;11.05;4.80;;;;;;;;;;5014490;28;20029;-82
2022/02/12 10:05:31;;;;;;;12.15;4.55;;;;;;;;;;4988543;28;20125;-78
2022/02/12 10:08:00;;;;;;;15.00;5.03;;;;;;;;;;4987414;28;20023;-82
2022/02/12 10:10:27;;;;;;;11.80;4.47;;;;;;;;;;4994355;28;20034;-79
2022/02/12 10:12:53;;;;;;;13.57;4.30;;;;;;;;;;4986683;28;20394;-84
2022/02/12 10:15:24;;;;;;;11.98;4.47;;;;;;;;;;4986040;28;20153;-84
2022/02/12 10:17:57;;;;;;;10.73;4.43;;;;;;;;;;4993217;28;20057;-84
2022/02/12 10:20:33;;;;;;;9.55;4.40;;;;;;;;;;4991648;28;20114;-81
2022/02/12 10:23:18;;;;;;;13.05;4.60;;;;;;;;;;4987855;28;20490;-84
2022/02/12 10:25:47;;;;;;;13.45;4.20;;;;;;;;;;4994756;28;20519;-84
2022/02/12 10:28:16;;;;;;;8.13;3.88;;;;;;;;;;4980619;28;20076;-81
2022/02/12 10:30:46;;;;;;;12.13;4.13;;;;;;;;;;4990036;28;20421;-82
2022/02/12 10:33:12;;;;;;;14.60;4.88;;;;;;;;;;5007245;28;20037;-82
2022/02/12 10:35:39;;;;;;;10.05;4.28;;;;;;;;;;4988014;28;20379;-81
2022/02/12 10:38:16;;;;;;;10.55;4.55;;;;;;;;;;4992463;28;20112;-79
2022/02/12 10:40:42;;;;;;;9.50;4.10;;;;;;;;;;4992471;28;20037;-79
2022/02/12 10:43:08;;;;;;;10.82;4.80;;;;;;;;;;4993193;28;20034;-82
2022/02/12 10:45:34;;;;;;;12.13;4.25;;;;;;;;;;4990233;28;20061;-81
2022/02/12 10:48:00;;;;;;;11.52;4.30;;;;;;;;;;4983685;28;20495;-84
2022/02/12 10:50:28;;;;;;;14.55;5.32;;;;;;;;;;4987140;28;20023;-80
2022/02/12 10:52:59;;;;;;;14.27;4.80;;;;;;;;;;4993145;28;20065;-79
2022/02/12 10:55:36;;;;;;;11.23;4.38;;;;;;;;;;4989493;28;20030;-83
2022/02/12 10:58:13;;;;;;;13.13;4.68;;;;;;;;;;4991049;28;20047;-81
2022/02/12 11:00:43;;;;;;;15.15;5.20;;;;;;;;;;4985692;28;20145;-78
2022/02/12 11:03:12;;;;;;;10.30;4.30;;;;;;;;;;4989684;28;20085;-79
2022/02/12 11:05:40;;;;;;;14.10;4.13;;;;;;;;;;4995440;28;20652;-81
2022/02/12 11:08:07;;;;;;;14.13;4.88;;;;;;;;;;4990761;28;20483;-81
2022/02/12 11:10:38;;;;;;;11.55;4.25;;;;;;;;;;4988289;28;20050;-83
2022/02/12 11:13:06;;;;;;;11.45;4.72;;;;;;;;;;4987223;28;20022;-79
2022/02/12 11:15:31;;;;;;;13.18;4.75;;;;;;;;;;5002039;28;20444;-79
2022/02/12 11:17:59;;;;;;;9.45;4.35;;;;;;;;;;4991883;28;20040;-81
2022/02/12 11:20:27;;;;;;;10.52;4.53;;;;;;;;;;4986402;28;20451;-83
2022/02/12 11:23:19;;;;;;;12.00;4.50;;;;;;;;;;4989910;28;20418;-83
2022/02/12 11:25:47;;;;;;;12.25;4.57;;;;;;;;;;4985173;28;20050;-81
2022/02/12 11:28:13;;;;;;;10.85;4.40;;;;;;;;;;4998504;28;20030;-81
2022/02/12 11:30:40;;;;;;;10.80;4.70;;;;;;;;;;4981852;28;20535;-79
2022/02/12 11:33:19;;;;;;;13.68;4.80;;;;;;;;;;4990013;28;20022;-78
2022/02/12 11:36:15;;;;;;;15.80;5.22;;;;;;;;;;5000218;28;20034;-83
2022/02/12 11:38:44;;;;;;;8.07;3.95;;;;;;;;;;4999365;28;20027;-84
2022/02/12 11:41:22;;;;;;;10.40;4.45;;;;;;;;;;4990560;28;20085;-79
2022/02/12 11:43:48;;;;;;;9.32;4.30;;;;;;;;;;4995838;28;20031;-81
2022/02/12 11:46:14;;;;;;;13.45;4.32;;;;;;;;;;4991475;28;20368;-83
2022/02/12 11:48:42;;;;;;;9.93;4.32;;;;;;;;;;4991481;28;20117;-82
2022/02/12 11:51:10;;;;;;;9.70;3.90;;;;;;;;;;4985894;28;20022;-79
2022/02/12 11:53:44;;;;;;;9.43;4.00;;;;;;;;;;4987323;28;20432;-79
2022/02/12 11:56:15;;;;;;;12.43;4.85;;;;;;;;;;4994375;28;20042;-79
2022/02/12 11:58:41;;;;;;;14.43;4.40;;;;;;;;;;4983057;28;20393;-81
2022/02/12 12:01:35;;;;;;;12.63;4.38;;;;;;;;;;4991415;28;20057;-83
2022/02/12 12:04:05;;;;;;;13.13;4.47;;;;;;;;;;4971125;28;20082;-78
2022/02/12 12:06:31;;;;;;;8.93;3.58;;;;;;;;;;4987764;28;20395;-81
2022/02/12 12:09:07;;;;;;;10.07;3.40;;;;;;;;;;4982493;28;20471;-83
2022/02/12 12:11:33;;;;;;;8.90;2.67;;;;;;;;;;4991343;28;20082;-82
2022/02/12 12:14:21;;;;;;;8.52;2.90;;;;;;;;;;4979873;28;20026;-81
2022/02/12 12:17:01;;;;;;;10.60;2.88;;;;;;;;;;4983240;28;20399;-83
2022/02/12 12:19:27;;;;;;;8.27;2.80;;;;;;;;;;4984129;28;20479;-81
2022/02/12 12:21:58;;;;;;;8.88;2.90;;;;;;;;;;4987641;28;20069;-81
2022/02/12 12:24:23;;;;;;;8.00;2.58;;;;;;;;;;4984650;28;20018;-81
2022/02/12 12:26:49;;;;;;;7.60;2.92;;;;;;;;;;4988493;28;20121;-80
2022/02/12 12:32:06;;;;;;;9.57;3.10;;;;;;;;;;4980841;28;20022;-83
2022/02/12 12:34:32;;;;;;;9.80;3.03;;;;;;;;;;4990734;28;20034;-82
2022/02/12 12:36:58;;;;;;;6.60;2.70;;;;;;;;;;4989875;28;20057;-83
2022/02/12 12:39:35;;;;;;;9.93;2.40;;;;;;;;;;4987654;28;20053;-82
2022/02/12 12:42:03;;;;;;;9.85;2.33;;;;;;;;;;4984437;28;20026;-83
2022/02/12 12:44:28;;;;;;;8.93;2.67;;;;;;;;;;4987822;28;20535;-81
2022/02/12 12:46:56;;;;;;;7.57;2.30;;;;;;;;;;4980539;28;20121;-82
2022/02/12 12:49:39;;;;;;;7.90;2.67;;;;;;;;;;4986832;28;20021;-81
2022/02/12 12:52:09;;;;;;;10.60;2.45;;;;;;;;;;4986460;28;20620;-83
2022/02/12 12:54:38;;;;;;;10.60;2.63;;;;;;;;;;4987747;28;20052;-81
2022/02/12 12:57:04;;;;;;;8.35;2.92;;;;;;;;;;4981628;28;20080;-78
2022/02/12 12:59:30;;;;;;;8.18;2.85;;;;;;;;;;4978726;28;20435;-83
2022/02/12 13:02:03;;;;;;;9.13;2.70;;;;;;;;;;4983702;28;20395;-78
2022/02/12 13:04:40;;;;;;;12.13;2.83;;;;;;;;;;4994069;28;20632;-81
2022/02/12 13:07:06;;;;;;;8.15;2.50;;;;;;;;;;4986391;28;20026;-81
2022/02/12 13:09:33;;;;;;;7.75;2.53;;;;;;;;;;4984479;28;20061;-79
2022/02/12 13:12:23;;;;;;;10.85;2.58;;;;;;;;;;4984136;28;20033;-83
2022/02/12 13:14:48;;;;;;;7.35;3.00;;;;;;;;;;4997672;28;20479;-82
2022/02/12 13:17:14;;;;;;;7.07;2.30;;;;;;;;;;4990005;28;20105;-82
2022/02/12 13:19:39;;;;;;;10.95;2.45;;;;;;;;;;4988920;28;20390;-83
2022/02/12 13:22:04;;;;;;;5.65;2.00;;;;;;;;;;4986650;28;20029;-81
2022/02/12 13:24:34;;;;;;;8.73;1.85;;;;;;;;;;4999894;28;20101;-80
2022/02/12 13:26:59;;;;;;;8.95;2.13;;;;;;;;;;4987290;28;20031;-83
2022/02/12 13:29:26;;;;;;;6.78;2.28;;;;;;;;;;5000162;28;20033;-82
2022/02/12 13:32:00;;;;;;;9.93;2.15;;;;;;;;;;4994683;28;20033;-83
2022/02/12 13:34:28;;;;;;;8.25;2.40;;;;;;;;;;4985380;28;20424;-79
2022/02/12 13:36:59;;;;;;;9.65;2.55;;;;;;;;;;4989245;28;20022;-81
2022/02/12 13:39:25;;;;;;;10.27;2.17;;;;;;;;;;4982733;28;20034;-83
2022/02/12 13:41:56;;;;;;;7.57;2.45;;;;;;;;;;4985971;28;20125;-82
2022/02/12 13:44:36;;;;;;;6.03;2.08;;;;;;;;;;4982514;28;20109;-81
2022/02/12 13:47:07;;;;;;;10.60;2.30;;;;;;;;;;4986978;28;20022;-81
2022/02/12 13:49:38;;;;;;;9.65;2.35;;;;;;;;;;4988617;28;20022;-81
2022/02/12 13:52:05;;;;;;;7.07;2.40;;;;;;;;;;4985574;28;20049;-83
2022/02/12 13:54:32;;;;;;;7.97;2.33;;;;;;;;;;4981940;28;20027;-81
2022/02/12 13:57:02;;;;;;;11.85;2.47;;;;;;;;;;4988922;28;20462;-83
2022/02/12 13:59:28;;;;;;;5.47;1.88;;;;;;;;;;4998770;28;20490;-80
2022/02/12 14:01:55;;;;;;;6.55;2.20;;;;;;;;;;4990525;28;20030;-82
2022/02/12 14:04:22;;;;;;;8.85;2.70;;;;;;;;;;4983526;28;20102;-81
2022/02/12 14:06:47;;;;;;;9.18;2.15;;;;;;;;;;4988140;28;20030;-81
2022/02/12 14:09:16;;;;;;;10.68;2.78;;;;;;;;;;4986538;28;20019;-81
2022/02/12 14:11:46;;;;;;;5.97;2.10;;;;;;;;;;4984590;28;20097;-81
2022/02/12 14:14:13;;;;;;;5.32;2.42;;;;;;;;;;4991765;28;20525;-82
2022/02/12 14:16:39;;;;;;;5.13;2.20;;;;;;;;;;4986154;28;20062;-82
2022/02/12 14:19:05;;;;;;;8.68;2.40;;;;;;;;;;4985352;28;20029;-80
2022/02/12 14:21:31;;;;;;;6.10;2.55;;;;;;;;;;4988632;28;20026;-83
2022/02/12 14:23:56;;;;;;;8.02;2.50;;;;;;;;;;4992300;28;20472;-83
2022/02/12 14:26:24;;;;;;;9.55;2.47;;;;;;;;;;4986923;28;20046;-83
2022/02/12 14:28:49;;;;;;;6.13;2.15;;;;;;;;;;5001348;28;20050;-81
2022/02/12 14:31:15;;;;;;;7.53;2.50;;;;;;;;;;4997969;28;20056;-82
2022/02/12 14:33:43;;;;;;;10.90;2.65;;;;;;;;;;4991595;28;20049;-83
2022/02/12 14:36:09;;;;;;;7.80;2.42;;;;;;;;;;4987905;28;20452;-82
2022/02/12 14:38:34;;;;;;;7.95;2.53;;;;;;;;;;4996939;28;20106;-81
2022/02/12 14:40:59;;;;;;;7.00;2.30;;;;;;;;;;4995080;28;20471;-81
2022/02/12 14:43:25;;;;;;;9.70;2.80;;;;;;;;;;4985066;28;20018;-82